Terminal Aerodrome Forecast
Issued by NWS Wichita, KS

Home | Current Version | Previous Version | Text Only | Print | Product List | Glossary On
Versions: 1 2 3 4 5 6 7 8 9 10 11 12 13 14 15 16 17
000
FTUS43 KICT 012050 AAB
TAFICT
TAF AMD
KICT 012050Z 0121/0218 24008KT P6SM VCSH BKN090
     FM020000 36009KT P6SM SCT100
     FM021200 02010KT P6SM SCT025 BKN100=

USA.gov is the U.S. government's official web portal to all federal, state and local government web resources and services.